Time,TemperatureF,DewpointF,PressureIn,WindDirection,WindDirectionDegrees,WindSpeedMPH,WindSpeedGustMPH,Humidity,HourlyPrecipIn,Conditions,Clouds,dailyrainin,SoftwareType,DateUTC
2013-03-29 00:03:00,45.0,34.0,-100.00,ESE,110,6.0,7.0,64,0.00,,,-99.99,,2013-03-29 05:03:00,
2013-03-29 00:12:00,45.0,34.0,-100.00,ESE,110,4.0,7.0,65,0.00,,,-99.99,,2013-03-29 05:12:00,
2013-03-29 00:23:00,45.0,34.0,-100.00,ESE,110,4.0,7.0,65,0.00,,,-99.99,,2013-03-29 05:23:00,
2013-03-29 00:32:00,43.0,33.0,-100.00,ESE,115,5.0,7.0,68,0.00,,,-99.99,,2013-03-29 05:32:00,
2013-03-29 00:43:00,43.0,33.0,-100.00,ESE,115,5.0,7.0,68,0.00,,,-99.99,,2013-03-29 05:43:00,
2013-03-29 00:52:00,41.0,33.0,-100.00,SE,135,3.0,5.0,71,0.00,,,-99.99,,2013-03-29 05:52:00,
2013-03-29 01:02:00,41.0,33.0,-100.00,SE,135,3.0,5.0,71,0.00,,,-99.99,,2013-03-29 06:02:00,
2013-03-29 01:12:00,41.0,33.0,-100.00,SE,145,3.0,5.0,72,0.00,,,-99.99,,2013-03-29 06:12:00,
2013-03-29 01:23:00,40.0,33.0,-100.00,SE,135,2.0,5.0,74,0.00,,,-99.99,,2013-03-29 06:23:00,
2013-03-29 01:32:00,40.0,34.0,-100.00,ESE,110,4.0,4.0,78,0.00,,,-99.99,,2013-03-29 06:32:00,
2013-03-29 01:42:00,40.0,34.0,-100.00,ESE,110,4.0,4.0,78,0.00,,,-99.99,,2013-03-29 06:42:00,
2013-03-29 01:52:00,39.0,34.0,-100.00,ESE,115,3.0,4.0,79,0.00,,,-99.99,,2013-03-29 06:52:00,
2013-03-29 02:03:00,39.0,34.0,-100.00,ESE,115,3.0,4.0,79,0.00,,,-99.99,,2013-03-29 07:03:00,
2013-03-29 02:12:00,39.0,34.0,-100.00,ESE,110,3.0,4.0,80,0.00,,,-99.99,,2013-03-29 07:12:00,
2013-03-29 02:22:00,39.0,34.0,-100.00,ESE,120,2.0,4.0,81,0.00,,,-99.99,,2013-03-29 07:22:00,
2013-03-29 02:32:00,38.0,33.0,-100.00,SE,145,1.0,4.0,83,0.00,,,-99.99,,2013-03-29 07:32:00,
2013-03-29 02:42:00,38.0,33.0,-100.00,SE,145,1.0,4.0,83,0.00,,,-99.99,,2013-03-29 07:42:00,
2013-03-29 02:52:00,37.0,34.0,-100.00,SE,125,1.0,3.0,85,0.00,,,-99.99,,2013-03-29 07:52:00,
2013-03-29 03:02:00,37.0,34.0,-100.00,SE,125,1.0,3.0,85,0.00,,,-99.99,,2013-03-29 08:02:00,
2013-03-29 03:12:00,37.0,33.0,-100.00,SE,135,2.0,3.0,86,0.00,,,-99.99,,2013-03-29 08:12:00,
2013-03-29 03:22:00,36.0,33.0,-100.00,ESE,115,2.0,4.0,87,0.00,,,-99.99,,2013-03-29 08:22:00,
2013-03-29 03:32:00,35.0,33.0,-100.00,SE,135,1.0,2.0,89,0.00,,,-99.99,,2013-03-29 08:32:00,
2013-03-29 03:42:00,35.0,33.0,-100.00,SE,135,1.0,2.0,89,0.00,,,-99.99,,2013-03-29 08:42:00,
2013-03-29 03:52:00,35.0,33.0,-100.00,South,175,1.0,2.0,91,0.00,,,-99.99,,2013-03-29 08:52:00,
2013-03-29 04:02:00,35.0,33.0,-100.00,South,175,1.0,2.0,91,0.00,,,-99.99,,2013-03-29 09:02:00,
2013-03-29 04:12:00,35.0,33.0,-100.00,ESE,120,0.0,2.0,91,0.00,,,-99.99,,2013-03-29 09:12:00,
2013-03-29 04:22:00,35.0,33.0,-100.00,ESE,110,2.0,3.0,92,0.00,,,-99.99,,2013-03-29 09:22:00,
2013-03-29 04:32:00,33.0,32.0,-100.00,ESE,115,0.0,1.0,93,0.00,,,-99.99,,2013-03-29 09:32:00,
2013-03-29 04:42:00,33.0,32.0,-100.00,ESE,115,0.0,1.0,93,0.00,,,-99.99,,2013-03-29 09:42:00,
2013-03-29 04:52:00,33.0,32.0,-100.00,SE,130,0.0,1.0,94,0.00,,,-99.99,,2013-03-29 09:52:00,
2013-03-29 05:02:00,33.0,32.0,-100.00,SE,130,0.0,1.0,94,0.00,,,-99.99,,2013-03-29 10:02:00,
2013-03-29 05:12:00,33.0,31.0,-100.00,SE,130,0.0,0.0,94,0.00,,,-99.99,,2013-03-29 10:12:00,
2013-03-29 05:22:00,33.0,31.0,-100.00,ESE,115,2.0,2.0,95,0.00,,,-99.99,,2013-03-29 10:22:00,
2013-03-29 05:33:00,32.0,31.0,-100.00,SE,125,0.0,0.0,96,0.00,,,-99.99,,2013-03-29 10:33:00,
2013-03-29 05:42:00,32.0,31.0,-100.00,SE,125,0.0,0.0,96,0.00,,,-99.99,,2013-03-29 10:42:00,
2013-03-29 05:52:00,31.0,30.0,-100.00,ENE,65,2.0,2.0,97,0.00,,,-99.99,,2013-03-29 10:52:00,
2013-03-29 06:03:00,31.0,30.0,-100.00,ENE,65,2.0,2.0,97,0.00,,,-99.99,,2013-03-29 11:03:00,
2013-03-29 06:12:00,31.0,30.0,-100.00,East,85,1.0,3.0,97,0.00,,,-99.99,,2013-03-29 11:12:00,
2013-03-29 06:23:00,31.0,30.0,-100.00,ESE,105,2.0,3.0,98,0.00,,,-99.99,,2013-03-29 11:23:00,
2013-03-29 06:32:00,31.0,31.0,-100.00,ESE,110,2.0,3.0,98,0.00,,,-99.99,,2013-03-29 11:32:00,
2013-03-29 06:42:00,31.0,31.0,-100.00,ESE,110,2.0,3.0,98,0.00,,,-99.99,,2013-03-29 11:42:00,
2013-03-29 06:52:00,31.0,31.0,-100.00,SE,130,1.0,2.0,98,0.00,,,-99.99,,2013-03-29 11:52:00,
2013-03-29 07:02:00,31.0,31.0,-100.00,SE,130,1.0,2.0,98,0.00,,,-99.99,,2013-03-29 12:02:00,
2013-03-29 07:12:00,31.0,31.0,-100.00,SSE,155,1.0,2.0,99,0.00,,,-99.99,,2013-03-29 12:12:00,
2013-03-29 07:22:00,31.0,31.0,-100.00,SSW,195,0.0,2.0,99,0.00,,,-99.99,,2013-03-29 12:22:00,
2013-03-29 07:32:00,30.0,30.0,-100.00,SSE,160,0.0,1.0,99,0.00,,,-99.99,,2013-03-29 12:32:00,
2013-03-29 07:42:00,30.0,30.0,-100.00,SSE,160,0.0,1.0,99,0.00,,,-99.99,,2013-03-29 12:42:00,
2013-03-29 07:52:00,32.0,32.0,-100.00,SE,130,2.0,3.0,99,0.00,,,-99.99,,2013-03-29 12:52:00,
2013-03-29 08:03:00,32.0,32.0,-100.00,SE,130,2.0,3.0,99,0.00,,,-99.99,,2013-03-29 13:03:00,
2013-03-29 08:12:00,33.0,32.0,-100.00,East,90,2.0,2.0,99,0.00,,,-99.99,,2013-03-29 13:12:00,
2013-03-29 08:22:00,33.0,33.0,-100.00,East,100,2.0,4.0,99,0.00,,,-99.99,,2013-03-29 13:22:00,
2013-03-29 08:32:00,35.0,35.0,-100.00,ESE,105,3.0,4.0,98,0.00,,,-99.99,,2013-03-29 13:32:00,
2013-03-29 08:42:00,35.0,35.0,-100.00,ESE,105,3.0,4.0,98,0.00,,,-99.99,,2013-03-29 13:42:00,
2013-03-29 08:52:00,38.0,36.0,-100.00,SE,135,2.0,5.0,94,0.00,,,-99.99,,2013-03-29 13:52:00,
2013-03-29 09:02:00,38.0,36.0,-100.00,SE,135,2.0,5.0,94,0.00,,,-99.99,,2013-03-29 14:02:00,
2013-03-29 09:12:00,39.0,36.0,-100.00,ESE,105,4.0,6.0,90,0.00,,,-99.99,,2013-03-29 14:12:00,
2013-03-29 09:22:00,41.0,36.0,-100.00,ESE,110,4.0,7.0,84,0.00,,,-99.99,,2013-03-29 14:22:00,
2013-03-29 09:32:00,44.0,36.0,-100.00,SE,130,3.0,7.0,74,0.00,,,-99.99,,2013-03-29 14:32:00,
2013-03-29 09:42:00,44.0,36.0,-100.00,SE,130,3.0,7.0,74,0.00,,,-99.99,,2013-03-29 14:42:00,
2013-03-29 09:52:00,45.0,35.0,-100.00,ESE,115,5.0,7.0,68,0.00,,,-99.99,,2013-03-29 14:52:00,
2013-03-29 10:02:00,45.0,35.0,-100.00,ESE,115,5.0,7.0,68,0.00,,,-99.99,,2013-03-29 15:02:00,
2013-03-29 10:12:00,45.0,35.0,-100.00,ESE,120,5.0,7.0,66,0.00,,,-99.99,,2013-03-29 15:12:00,
2013-03-29 10:22:00,46.0,35.0,-100.00,ESE,115,6.0,9.0,63,0.00,,,-99.99,,2013-03-29 15:22:00,
2013-03-29 10:33:00,48.0,35.0,-100.00,ESE,120,5.0,9.0,60,0.00,,,-99.99,,2013-03-29 15:33:00,
2013-03-29 10:43:00,48.0,35.0,-100.00,ESE,120,5.0,9.0,60,0.00,,,-99.99,,2013-03-29 15:43:00,
2013-03-29 10:52:00,51.0,36.0,-100.00,ESE,120,7.0,11.0,55,0.00,,,-99.99,,2013-03-29 15:52:00,
2013-03-29 11:03:00,51.0,36.0,-100.00,ESE,120,7.0,11.0,55,0.00,,,-99.99,,2013-03-29 16:03:00,
2013-03-29 11:12:00,50.0,34.0,-100.00,ESE,105,9.0,12.0,54,0.00,,,-99.99,,2013-03-29 16:12:00,
2013-03-29 11:23:00,51.0,35.0,-100.00,SE,130,6.0,12.0,52,0.00,,,-99.99,,2013-03-29 16:23:00,
2013-03-29 11:32:00,54.0,35.0,-100.00,SSE,160,8.0,11.0,49,0.00,,,-99.99,,2013-03-29 16:32:00,
2013-03-29 11:42:00,54.0,35.0,-100.00,SSE,160,8.0,11.0,49,0.00,,,-99.99,,2013-03-29 16:42:00,
2013-03-29 11:52:00,54.0,35.0,-100.00,SE,145,7.0,12.0,47,0.00,,,-99.99,,2013-03-29 16:52:00,
2013-03-29 12:03:00,54.0,35.0,-100.00,SE,145,7.0,12.0,47,0.00,,,-99.99,,2013-03-29 17:03:00,
2013-03-29 12:12:00,56.0,35.0,-100.00,ESE,110,8.0,11.0,45,0.00,,,-99.99,,2013-03-29 17:12:00,
2013-03-29 12:22:00,56.0,35.0,-100.00,East,100,7.0,11.0,44,0.00,,,-99.99,,2013-03-29 17:22:00,
2013-03-29 12:33:00,56.0,33.0,-100.00,ESE,115,9.0,15.0,41,0.00,,,-99.99,,2013-03-29 17:33:00,
2013-03-29 12:42:00,56.0,33.0,-100.00,ESE,115,9.0,15.0,41,0.00,,,-99.99,,2013-03-29 17:42:00,
2013-03-29 12:52:00,58.0,33.0,-100.00,ESE,120,9.0,14.0,39,0.00,,,-99.99,,2013-03-29 17:52:00,
2013-03-29 13:02:00,58.0,33.0,-100.00,ESE,120,9.0,14.0,39,0.00,,,-99.99,,2013-03-29 18:02:00,
2013-03-29 13:12:00,58.0,33.0,-100.00,SE,140,5.0,12.0,38,0.00,,,-99.99,,2013-03-29 18:12:00,
2013-03-29 13:22:00,59.0,33.0,-100.00,ESE,110,9.0,14.0,37,0.00,,,-99.99,,2013-03-29 18:22:00,
2013-03-29 13:32:00,60.0,33.0,-100.00,SE,140,4.0,12.0,35,0.00,,,-99.99,,2013-03-29 18:32:00,
2013-03-29 13:42:00,60.0,33.0,-100.00,SE,140,4.0,12.0,35,0.00,,,-99.99,,2013-03-29 18:42:00,
2013-03-29 13:52:00,61.0,33.0,-100.00,SE,135,7.0,14.0,34,0.00,,,-99.99,,2013-03-29 18:52:00,
2013-03-29 14:02:00,61.0,33.0,-100.00,SE,135,7.0,14.0,34,0.00,,,-99.99,,2013-03-29 19:02:00,
2013-03-29 14:12:00,61.0,33.0,-100.00,SSE,155,9.0,16.0,33,0.00,,,-99.99,,2013-03-29 19:12:00,
2013-03-29 14:22:00,62.0,33.0,-100.00,SSE,150,6.0,15.0,33,0.00,,,-99.99,,2013-03-29 19:22:00,
2013-03-29 14:32:00,62.0,33.0,-100.00,ESE,115,6.0,14.0,32,0.00,,,-99.99,,2013-03-29 19:32:00,
2013-03-29 14:42:00,62.0,33.0,-100.00,ESE,115,6.0,14.0,32,0.00,,,-99.99,,2013-03-29 19:42:00,
2013-03-29 14:52:00,63.0,32.0,-100.00,SSE,160,7.0,15.0,31,0.00,,,-99.99,,2013-03-29 19:52:00,
2013-03-29 15:02:00,63.0,32.0,-100.00,SSE,160,7.0,15.0,31,0.00,,,-99.99,,2013-03-29 20:02:00,
2013-03-29 15:12:00,63.0,32.0,-100.00,ESE,115,6.0,12.0,31,0.00,,,-99.99,,2013-03-29 20:12:00,
2013-03-29 15:22:00,63.0,33.0,-100.00,SSE,150,6.0,15.0,31,0.00,,,-99.99,,2013-03-29 20:22:00,
2013-03-29 15:33:00,63.0,32.0,-100.00,ESE,105,9.0,15.0,30,0.00,,,-99.99,,2013-03-29 20:33:00,
2013-03-29 15:42:00,63.0,32.0,-100.00,ESE,105,9.0,15.0,30,0.00,,,-99.99,,2013-03-29 20:42:00,
2013-03-29 15:52:00,63.0,32.0,-100.00,SSE,155,8.0,15.0,30,0.00,,,-99.99,,2013-03-29 20:52:00,
2013-03-29 16:02:00,63.0,32.0,-100.00,SSE,155,8.0,15.0,30,0.00,,,-99.99,,2013-03-29 21:02:00,
2013-03-29 16:12:00,64.0,32.0,-100.00,ESE,115,4.0,13.0,29,0.00,,,-99.99,,2013-03-29 21:12:00,
2013-03-29 16:22:00,64.0,32.0,-100.00,SSE,160,9.0,16.0,29,0.00,,,-99.99,,2013-03-29 21:22:00,
2013-03-29 16:33:00,64.0,31.0,-100.00,South,175,9.0,14.0,29,0.00,,,-99.99,,2013-03-29 21:33:00,
2013-03-29 16:42:00,65.0,31.0,-100.00,South,185,7.0,14.0,28,0.00,,,-99.99,,2013-03-29 21:42:00,
2013-03-29 16:53:00,65.0,31.0,-100.00,SSE,155,8.0,12.0,28,0.00,,,-99.99,,2013-03-29 21:53:00,
2013-03-29 17:03:00,65.0,31.0,-100.00,SSE,155,8.0,12.0,28,0.00,,,-99.99,,2013-03-29 22:03:00,
2013-03-29 17:12:00,65.0,32.0,-100.00,SSE,165,7.0,13.0,28,0.00,,,-99.99,,2013-03-29 22:12:00,
2013-03-29 17:22:00,65.0,32.0,-100.00,SSE,165,7.0,10.0,28,0.00,,,-99.99,,2013-03-29 22:22:00,
2013-03-29 17:33:00,64.0,31.0,-100.00,South,170,6.0,11.0,28,0.00,,,-99.99,,2013-03-29 22:33:00,
2013-03-29 17:42:00,64.0,31.0,-100.00,SE,130,8.0,12.0,28,0.00,,,-99.99,,2013-03-29 22:42:00,
2013-03-29 17:52:00,63.0,31.0,-100.00,South,170,7.0,16.0,29,0.00,,,-99.99,,2013-03-29 22:52:00,
2013-03-29 18:02:00,63.0,31.0,-100.00,South,170,7.0,16.0,29,0.00,,,-99.99,,2013-03-29 23:02:00,
2013-03-29 18:12:00,63.0,32.0,-100.00,SE,135,9.0,14.0,29,0.00,,,-99.99,,2013-03-29 23:12:00,
2013-03-29 18:22:00,64.0,32.0,-100.00,SE,140,6.0,12.0,29,0.00,,,-99.99,,2013-03-29 23:22:00,
2013-03-29 18:32:00,63.0,31.0,-100.00,SSE,150,6.0,11.0,29,0.00,,,-99.99,,2013-03-29 23:32:00,
2013-03-29 18:42:00,63.0,31.0,-100.00,SSE,150,6.0,11.0,29,0.00,,,-99.99,,2013-03-29 23:42:00,
2013-03-29 18:52:00,62.0,31.0,-100.00,SSE,150,7.0,11.0,30,0.00,,,-99.99,,2013-03-29 23:52:00,
2013-03-29 19:03:00,62.0,31.0,-100.00,SSE,150,7.0,11.0,30,0.00,,,-99.99,,2013-03-30 00:03:00,
2013-03-29 19:12:00,61.0,31.0,-100.00,SSE,150,4.0,10.0,31,0.00,,,-99.99,,2013-03-30 00:12:00,
2013-03-29 19:22:00,60.0,31.0,-100.00,SSE,150,4.0,9.0,32,0.00,,,-99.99,,2013-03-30 00:22:00,
2013-03-29 19:32:00,58.0,30.0,-100.00,SE,140,5.0,9.0,34,0.00,,,-99.99,,2013-03-30 00:32:00,
2013-03-29 19:42:00,58.0,30.0,-100.00,SE,140,5.0,9.0,34,0.00,,,-99.99,,2013-03-30 00:42:00,
2013-03-29 19:52:00,57.0,30.0,-100.00,SE,140,5.0,7.0,35,0.00,,,-99.99,,2013-03-30 00:52:00,
2013-03-29 20:02:00,56.0,30.0,-100.00,SE,130,4.0,8.0,36,0.00,,,-99.99,,2013-03-30 01:02:00,
2013-03-29 20:12:00,55.0,30.0,-100.00,SE,130,4.0,7.0,38,0.00,,,-99.99,,2013-03-30 01:12:00,
2013-03-29 20:22:00,54.0,30.0,-100.00,SE,125,4.0,6.0,39,0.00,,,-99.99,,2013-03-30 01:22:00,
2013-03-29 20:33:00,53.0,30.0,-100.00,SE,135,5.0,7.0,41,0.00,,,-99.99,,2013-03-30 01:33:00,
2013-03-29 20:42:00,53.0,30.0,-100.00,SE,135,5.0,7.0,41,0.00,,,-99.99,,2013-03-30 01:42:00,
2013-03-29 20:52:00,51.0,30.0,-100.00,SE,125,6.0,8.0,44,0.00,,,-99.99,,2013-03-30 01:52:00,
2013-03-29 21:02:00,51.0,30.0,-100.00,SE,125,6.0,8.0,44,0.00,,,-99.99,,2013-03-30 02:02:00,
2013-03-29 21:12:00,51.0,31.0,-100.00,SE,130,6.0,9.0,45,0.00,,,-99.99,,2013-03-30 02:12:00,
2013-03-29 21:22:00,51.0,31.0,-100.00,SE,135,6.0,10.0,46,0.00,,,-99.99,,2013-03-30 02:22:00,
2013-03-29 21:32:00,50.0,31.0,-100.00,SE,145,7.0,10.0,48,0.00,,,-99.99,,2013-03-30 02:32:00,
2013-03-29 21:42:00,50.0,31.0,-100.00,SE,145,7.0,10.0,48,0.00,,,-99.99,,2013-03-30 02:42:00,
2013-03-29 21:52:00,49.0,32.0,-100.00,SSE,155,6.0,10.0,49,0.00,,,-99.99,,2013-03-30 02:52:00,
2013-03-29 22:02:00,49.0,32.0,-100.00,SSE,155,6.0,10.0,49,0.00,,,-99.99,,2013-03-30 03:02:00,
2013-03-29 22:12:00,49.0,31.0,-100.00,SE,125,5.0,9.0,50,0.00,,,-99.99,,2013-03-30 03:12:00,
2013-03-29 22:22:00,49.0,32.0,-100.00,SE,135,6.0,9.0,51,0.00,,,-99.99,,2013-03-30 03:22:00,
2013-03-29 22:33:00,49.0,32.0,-100.00,SE,140,6.0,9.0,52,0.00,,,-99.99,,2013-03-30 03:33:00,
2013-03-29 22:43:00,49.0,32.0,-100.00,SE,140,6.0,9.0,52,0.00,,,-99.99,,2013-03-30 03:43:00,
2013-03-29 22:52:00,49.0,32.0,-100.00,SE,135,6.0,12.0,52,0.00,,,-99.99,,2013-03-30 03:52:00,
2013-03-29 23:02:00,49.0,32.0,-100.00,SE,135,6.0,12.0,52,0.00,,,-99.99,,2013-03-30 04:02:00,
2013-03-29 23:12:00,49.0,32.0,-100.00,SSE,150,6.0,9.0,52,0.00,,,-99.99,,2013-03-30 04:12:00,
2013-03-29 23:23:00,49.0,32.0,-100.00,SSE,155,6.0,9.0,53,0.00,,,-99.99,,2013-03-30 04:23:00,
2013-03-29 23:32:00,49.0,33.0,-100.00,SSE,160,4.0,9.0,53,0.00,,,-99.99,,2013-03-30 04:32:00,
2013-03-29 23:42:00,49.0,33.0,-100.00,SSE,160,4.0,9.0,53,0.00,,,-99.99,,2013-03-30 04:42:00,
2013-03-29 23:52:00,48.0,33.0,-100.00,SSE,150,4.0,9.0,55,0.00,,,-99.99,,2013-03-30 04:52:00,